Decoded Metar for UMGG (GOMEL in BELARUS) (IATA:GME) | Meteo·Mobile Aviation Weather
aviador You're here:

UMGG Decoded Metar

GOMEL in BELARUS
Report Time2019-10-22 14:00:00
UTC Time2019-10-22 14:09:17
Flight Rules mvfr MVFR
Wind170° at 6 kt
W.Decomp.*RWY 10: 2.7 kt HW 5.3 kt RCW
Visibility6000 m
Phenomena:N/A
Clouds:N/A
Expected CloudBase > 2,000 ft AGL from Temp-Dew spread
CeilingNone
Temp17°C (ISA +3)
Dew Point12°C (73% RH)
AAT15.5°C
QNH1023 hPa
Density Alt669 ft
Elevation472 ft
Report Wrong Elevation
Raw Report
METAR UMGG 221400Z 17003MPS 6000 NSC 17/12 Q1023 R10/CLRD// NOSIG=

Extra information for UMGG:More info

Metar Taf Metar & Taf Last 4 Metars F.Rules Stats Wind Profile Meteogram Temp Stats Airport Information Weather charts Add Link Nearby VenuesMetar ALERT Operation Metar Decoded Social comments